createdAt,value
2017-12-16T00:02:42.742Z,95936.98
2017-12-16T00:05:15.833Z,95930.16
2017-12-16T00:07:52.591Z,95928.06
2017-12-16T00:10:28.144Z,95922.49
2017-12-16T00:12:58.069Z,95920.66
2017-12-16T00:15:31.760Z,95917.70
2017-12-16T00:18:36.800Z,95920.20
2017-12-16T00:21:09.306Z,95911.14
2017-12-16T00:23:51.218Z,95912.95
2017-12-16T00:26:27.135Z,95919.34
2017-12-16T00:28:58.630Z,95917.61
2017-12-16T00:31:29.837Z,95900.77
2017-12-16T00:34:03.947Z,95910.20
2017-12-16T00:37:33.658Z,95914.39
2017-12-16T00:40:08.409Z,95906.48
2017-12-16T00:42:45.589Z,95912.71
2017-12-16T00:45:20.477Z,95906.33
2017-12-16T00:47:59.298Z,95902.23
2017-12-16T00:50:33.823Z,95899.91
2017-12-16T00:53:09.910Z,95909.11
2017-12-16T00:55:47.207Z,95912.27
2017-12-16T00:58:27.956Z,95907.12
2017-12-16T01:01:05.798Z,95907.69
2017-12-16T01:03:38.736Z,95919.95
2017-12-16T01:06:13.389Z,95913.22
2017-12-16T01:08:45.766Z,95907.27
2017-12-16T01:11:17.889Z,95907.63
2017-12-16T01:13:52.865Z,95904.80
2017-12-16T01:16:28.845Z,95915.90
2017-12-16T01:19:07.369Z,95924.28
2017-12-16T01:21:59.670Z,95929.51
2017-12-16T01:24:39.287Z,95933.89
2017-12-16T01:27:41.244Z,95929.88
2017-12-16T01:30:35.615Z,95930.16
2017-12-16T01:33:59.252Z,95924.47
2017-12-16T01:36:49.821Z,95938.00
2017-12-16T01:39:30.826Z,95938.28
2017-12-16T01:44:43.246Z,95917.14
2017-12-16T01:47:21.192Z,95917.32
2017-12-16T01:49:54.587Z,95913.22
2017-12-16T01:56:12.516Z,95919.45
2017-12-16T01:58:44.472Z,95923.13
2017-12-16T02:01:24.307Z,95922.82
2017-12-16T02:04:13.933Z,95936.38
2017-12-16T02:09:37.099Z,95918.28
2017-12-16T02:12:14.153Z,95913.59
2017-12-16T02:14:47.596Z,95923.95
2017-12-16T02:17:22.232Z,95926.49
2017-12-16T02:19:55.295Z,95921.45
2017-12-16T02:22:31.625Z,95927.36
2017-12-16T02:25:16.639Z,95919.24
2017-12-16T02:28:37.411Z,95927.13
2017-12-16T02:31:10.196Z,95948.48
2017-12-16T02:34:48.725Z,95937.92
2017-12-16T02:37:24.760Z,95930.30
2017-12-16T02:40:15.903Z,95927.38
2017-12-16T02:43:13.486Z,95917.50
2017-12-16T02:45:51.746Z,95913.53
2017-12-16T02:48:24.546Z,95914.38
2017-12-16T02:50:59.055Z,95922.76
2017-12-16T02:57:53.106Z,95934.30
2017-12-16T03:00:31.795Z,95931.57
2017-12-16T03:03:23.427Z,95939.66
2017-12-16T03:05:59.345Z,95947.97
2017-12-16T03:08:32.813Z,95953.02
2017-12-16T03:11:05.944Z,95963.14
2017-12-16T03:13:42.777Z,95968.72
2017-12-16T03:16:31.913Z,95968.86
2017-12-16T03:19:09.566Z,95969.04
2017-12-16T03:21:54.154Z,95968.02
2017-12-16T03:25:01.768Z,95960.06
2017-12-16T03:27:37.643Z,95959.78
2017-12-16T03:30:08.082Z,95956.14
2017-12-16T03:35:39.243Z,95926.60
2017-12-16T03:38:14.495Z,95928.80
2017-12-16T03:40:56.702Z,95939.98
2017-12-16T03:43:42.857Z,95938.05
2017-12-16T03:46:20.839Z,95938.92
2017-12-16T03:48:55.821Z,95942.05
2017-12-16T03:51:27.959Z,95938.70
2017-12-16T03:54:05.637Z,95946.05
2017-12-16T03:57:16.173Z,95941.33
2017-12-16T03:59:52.967Z,95934.06
2017-12-16T04:02:24.178Z,95942.25
2017-12-16T04:05:18.404Z,95945.31
2017-12-16T04:07:49.322Z,95958.29
2017-12-16T04:10:21.432Z,95952.23
2017-12-16T04:12:52.410Z,95956.89
2017-12-16T04:15:25.443Z,95970.67
2017-12-16T04:18:04.681Z,95960.23
2017-12-16T04:20:37.068Z,95952.89
2017-12-16T04:23:08.633Z,95949.88
2017-12-16T04:25:38.722Z,95953.77
2017-12-16T04:28:10.476Z,95962.52
2017-12-16T04:30:41.406Z,95963.63
2017-12-16T04:33:15.985Z,95971.19
2017-12-16T04:35:47.230Z,95984.89
2017-12-16T04:38:19.691Z,95991.11
2017-12-16T04:40:54.366Z,95995.69
2017-12-16T04:43:24.405Z,95997.04
2017-12-16T04:45:54.552Z,95996.89
2017-12-16T04:48:25.293Z,96007.36
2017-12-16T04:51:05.850Z,96006.77
2017-12-16T04:53:38.323Z,95999.42
2017-12-16T04:56:14.085Z,96012.72
2017-12-16T04:58:44.345Z,96020.27
2017-12-16T05:01:18.200Z,96021.45
2017-12-16T05:06:33.685Z,96018.31
2017-12-16T05:09:05.057Z,96023.97
2017-12-16T05:11:36.685Z,96027.70
2017-12-16T05:14:07.081Z,96031.36
2017-12-16T05:16:38.769Z,96041.69
2017-12-16T05:19:09.347Z,96045.48
2017-12-16T05:21:39.752Z,96045.20
2017-12-16T05:24:18.325Z,96046.84
2017-12-16T05:26:51.930Z,96045.87
2017-12-16T05:29:23.252Z,96049.65
2017-12-16T05:31:55.108Z,96056.69
2017-12-16T05:34:34.365Z,96058.98
2017-12-16T05:37:07.862Z,96071.53
2017-12-16T05:39:38.411Z,96069.53
2017-12-16T05:42:11.305Z,96064.30
2017-12-16T05:44:42.105Z,96072.69
2017-12-16T05:47:16.419Z,96080.38
2017-12-16T05:49:47.835Z,96092.25
2017-12-16T05:52:28.154Z,96099.43
2017-12-16T05:55:02.673Z,96113.13
2017-12-16T05:57:34.173Z,96118.09
2017-12-16T06:00:04.743Z,96123.70
2017-12-16T06:02:34.338Z,96127.32
2017-12-16T06:05:12.963Z,96127.97
2017-12-16T06:07:47.142Z,96128.58
2017-12-16T06:10:18.434Z,96131.83
2017-12-16T06:12:52.860Z,96135.13
2017-12-16T06:15:38.634Z,96139.94
2017-12-16T06:18:13.766Z,96144.81
2017-12-16T06:20:47.122Z,96155.08
2017-12-16T06:23:20.340Z,96164.95
2017-12-16T06:25:54.528Z,96166.38
2017-12-16T06:31:44.549Z,96161.37
2017-12-16T06:34:15.319Z,96163.44
2017-12-16T06:36:46.641Z,96162.72
2017-12-16T06:39:17.360Z,96170.06
2017-12-16T06:41:51.112Z,96177.36
2017-12-16T06:44:24.020Z,96178.09
2017-12-16T06:46:57.359Z,96181.13
2017-12-16T06:49:30.163Z,96194.69
2017-12-16T06:52:04.454Z,96199.84
2017-12-16T06:54:37.784Z,96202.44
2017-12-16T06:57:11.720Z,96207.84
2017-12-16T06:59:42.401Z,96213.23
2017-12-16T07:02:14.124Z,96219.25
2017-12-16T07:04:47.016Z,96228.70
2017-12-16T07:07:31.011Z,96227.03
2017-12-16T07:10:15.554Z,96234.68
2017-12-16T07:13:02.485Z,96243.30
2017-12-16T07:15:33.625Z,96249.19
2017-12-16T07:18:05.193Z,96260.12
2017-12-16T07:20:35.271Z,96264.89
2017-12-16T07:23:09.272Z,96273.32
2017-12-16T07:25:41.337Z,96276.83
2017-12-16T07:28:13.250Z,96270.95
2017-12-16T07:30:43.183Z,96271.66
2017-12-16T07:33:13.686Z,96272.98
2017-12-16T07:35:48.581Z,96275.03
2017-12-16T07:38:26.483Z,96285.20
2017-12-16T07:40:58.685Z,96285.22
2017-12-16T07:43:28.331Z,96290.00
2017-12-16T07:46:03.350Z,96290.95
2017-12-16T07:48:33.773Z,96299.70
2017-12-16T07:51:07.541Z,96303.63
2017-12-16T07:54:03.011Z,96301.94
2017-12-16T07:56:35.345Z,96305.88
2017-12-16T07:59:06.323Z,96323.00
2017-12-16T08:01:39.161Z,96318.84
2017-12-16T08:04:10.170Z,96325.61
2017-12-16T08:06:42.704Z,96325.38
2017-12-16T08:09:13.772Z,96332.41
2017-12-16T08:11:55.094Z,96329.66
2017-12-16T08:14:27.212Z,96340.18
2017-12-16T08:17:07.538Z,96342.05
2017-12-16T08:19:39.223Z,96335.83
2017-12-16T08:22:20.212Z,96342.23
2017-12-16T08:24:52.694Z,96345.30
2017-12-16T08:27:25.292Z,96343.04
2017-12-16T08:29:55.240Z,96346.30
2017-12-16T08:32:28.312Z,96348.53
2017-12-16T08:34:58.462Z,96364.81
2017-12-16T08:37:31.212Z,96371.82
2017-12-16T08:40:02.700Z,96377.25
2017-12-16T08:42:35.724Z,96374.75
2017-12-16T08:45:10.577Z,96378.72
2017-12-16T08:47:45.884Z,96386.59
2017-12-16T08:50:20.951Z,96399.69
2017-12-16T08:52:56.085Z,96405.08
2017-12-16T08:55:28.263Z,96419.50
2017-12-16T08:58:01.070Z,96431.03
2017-12-16T09:00:33.172Z,96434.55
2017-12-16T09:03:05.904Z,96439.29
2017-12-16T09:05:39.053Z,96441.50
2017-12-16T09:08:11.445Z,96449.30
2017-12-16T09:14:30.387Z,96449.91
2017-12-16T09:17:07.353Z,96454.86
2017-12-16T09:19:43.243Z,96462.73
2017-12-16T09:22:20.003Z,96467.16
2017-12-16T09:24:55.306Z,96461.73
2017-12-16T09:27:33.224Z,96462.56
2017-12-16T09:30:04.174Z,96457.86
2017-12-16T09:32:36.244Z,96461.26
2017-12-16T09:35:07.048Z,96459.92
2017-12-16T09:37:39.314Z,96451.07
2017-12-16T09:40:11.858Z,96466.00
2017-12-16T09:42:42.769Z,96462.70
2017-12-16T09:45:15.287Z,96459.31
2017-12-16T09:47:46.832Z,96463.14
2017-12-16T09:50:23.298Z,96464.53
2017-12-16T09:52:58.214Z,96473.98
2017-12-16T09:55:28.972Z,96479.73
2017-12-16T10:28:24.586Z,96493.16
2017-12-16T10:30:55.809Z,96497.62
2017-12-16T10:33:28.704Z,96498.84
2017-12-16T10:36:09.261Z,96495.69
2017-12-16T10:38:45.263Z,96500.03
2017-12-16T10:41:25.938Z,96502.67
2017-12-16T10:44:01.676Z,96502.77
2017-12-16T10:46:37.753Z,96504.20
2017-12-16T10:49:09.071Z,96504.49
2017-12-16T10:51:42.252Z,96509.51
2017-12-16T10:54:13.104Z,96510.24
2017-12-16T10:56:50.474Z,96511.07
2017-12-16T10:59:29.297Z,96510.98
2017-12-16T11:02:00.523Z,96514.79
2017-12-16T11:04:30.948Z,96515.13
2017-12-16T11:07:04.214Z,96518.98
2017-12-16T11:09:37.236Z,96519.56
2017-12-16T11:12:09.156Z,96518.17
2017-12-16T11:14:39.003Z,96512.61
2017-12-16T11:17:10.213Z,96507.88
2017-12-16T11:19:41.746Z,96518.50
2017-12-16T11:22:19.248Z,96518.21
2017-12-16T11:24:53.801Z,96517.77
2017-12-16T11:27:26.728Z,96532.34
2017-12-16T11:30:02.840Z,96527.17
2017-12-16T11:32:42.600Z,96528.06
2017-12-16T11:35:18.414Z,96528.90
2017-12-16T11:37:51.613Z,96530.80
2017-12-16T11:40:22.402Z,96526.97
2017-12-16T11:42:52.616Z,96537.85
2017-12-16T11:45:23.702Z,96535.34
2017-12-16T11:47:54.619Z,96536.55
2017-12-16T11:50:26.503Z,96535.44
2017-12-16T11:52:57.105Z,96544.22
2017-12-16T11:55:28.522Z,96547.92
2017-12-16T11:58:35.242Z,96553.44
2017-12-16T12:01:06.475Z,96558.60
2017-12-16T12:03:57.015Z,96562.16
2017-12-16T12:06:40.474Z,96559.45
2017-12-16T12:09:10.933Z,96555.09
2017-12-16T12:11:49.356Z,96552.30
2017-12-16T12:14:40.233Z,96560.11
2017-12-16T12:17:37.162Z,96557.81
2017-12-16T12:20:24.197Z,96557.11
2017-12-16T12:22:59.211Z,96563.25
2017-12-16T12:25:32.355Z,96565.28
2017-12-16T12:28:14.341Z,96563.31
2017-12-16T12:38:36.686Z,96574.62
2017-12-16T12:41:12.116Z,96584.59
2017-12-16T12:43:49.686Z,96582.42
2017-12-16T12:46:46.668Z,96586.71
2017-12-16T12:49:18.147Z,96585.27
2017-12-16T12:52:00.098Z,96589.68
2017-12-16T12:54:32.948Z,96587.13
2017-12-16T12:57:06.740Z,96589.25
2017-12-16T12:59:52.496Z,96595.69
2017-12-16T13:02:28.151Z,96595.69
2017-12-16T13:05:23.374Z,96592.23
2017-12-16T13:08:21.868Z,96599.37
2017-12-16T13:11:55.405Z,96602.80
2017-12-16T13:14:27.291Z,96607.48
2017-12-16T13:17:03.032Z,96604.27
2017-12-16T13:19:39.224Z,96607.09
2017-12-16T13:22:10.447Z,96609.26
2017-12-16T13:24:42.072Z,96608.56
2017-12-16T13:27:12.668Z,96610.21
2017-12-16T13:30:14.947Z,96612.98
2017-12-16T13:32:45.860Z,96623.03
2017-12-16T13:35:26.213Z,96621.33
2017-12-16T13:37:56.764Z,96629.47
2017-12-16T13:40:33.142Z,96626.63
2017-12-16T13:43:07.819Z,96632.99
2017-12-16T13:45:44.633Z,96641.51
2017-12-16T13:48:19.944Z,96643.58
2017-12-16T13:50:59.793Z,96649.85
2017-12-16T13:53:32.661Z,96656.06
2017-12-16T13:56:03.695Z,96655.16
2017-12-16T13:58:37.656Z,96660.30
2017-12-16T14:01:18.472Z,96669.70
2017-12-16T14:03:53.691Z,96668.60
2017-12-16T14:06:28.038Z,96672.43
2017-12-16T14:08:59.186Z,96672.14
2017-12-16T14:11:30.142Z,96676.58
2017-12-16T14:14:01.797Z,96688.73
2017-12-16T14:16:39.376Z,96690.14
2017-12-16T14:19:25.138Z,96696.20
2017-12-16T14:21:54.963Z,96697.49
2017-12-16T14:24:30.331Z,96692.36
2017-12-16T14:27:18.766Z,96701.33
2017-12-16T14:30:13.443Z,96711.43
2017-12-16T14:32:47.939Z,96710.92
2017-12-16T14:35:18.321Z,96714.76
2017-12-16T14:37:50.991Z,96716.55
2017-12-16T14:40:22.731Z,96726.41
2017-12-16T14:43:03.817Z,96734.59
2017-12-16T14:45:38.524Z,96733.78
2017-12-16T14:48:16.689Z,96738.97
2017-12-16T14:50:51.813Z,96748.97
2017-12-16T14:53:23.531Z,96752.33
2017-12-16T14:55:59.312Z,96753.53
2017-12-16T14:58:36.469Z,96754.73
2017-12-16T15:01:11.204Z,96761.23
2017-12-16T15:03:44.173Z,96758.89
2017-12-16T15:06:17.100Z,96766.45
2017-12-16T15:09:09.539Z,96762.81
2017-12-16T15:12:54.923Z,96765.02
2017-12-16T15:15:28.422Z,96776.77
2017-12-16T15:21:43.390Z,96791.27
2017-12-16T15:24:18.392Z,96784.58
2017-12-16T15:26:50.495Z,96790.25
2017-12-16T15:29:21.923Z,96788.03
2017-12-16T15:31:55.140Z,96792.33
2017-12-16T15:34:25.241Z,96795.02
2017-12-16T15:36:54.974Z,96795.66
2017-12-16T15:42:31.363Z,96793.52
2017-12-16T15:45:01.688Z,96802.28
2017-12-16T15:47:33.940Z,96805.83
2017-12-16T15:50:04.500Z,96809.36
2017-12-16T15:52:36.530Z,96817.67
2017-12-16T15:55:08.126Z,96813.91
2017-12-16T15:57:40.735Z,96821.78
2017-12-16T16:00:13.235Z,96826.38
2017-12-16T16:02:45.065Z,96830.26
2017-12-16T16:07:55.981Z,96832.69
2017-12-16T16:10:37.234Z,96829.70
2017-12-16T16:13:06.972Z,96828.80
2017-12-16T16:15:38.109Z,96835.58
2017-12-16T16:18:18.052Z,96839.33
2017-12-16T16:20:50.230Z,96837.21
2017-12-16T16:23:21.823Z,96838.42
2017-12-16T16:25:53.186Z,96842.09
2017-12-16T16:28:24.123Z,96846.79
2017-12-16T16:31:03.134Z,96849.64
2017-12-16T16:33:37.557Z,96851.81
2017-12-16T16:36:10.398Z,96852.56
2017-12-16T16:38:43.759Z,96857.19
2017-12-16T16:41:18.511Z,96860.72
2017-12-16T16:43:50.401Z,96859.58
2017-12-16T16:46:21.950Z,96866.28
2017-12-16T16:48:53.391Z,96874.11
2017-12-16T16:51:27.078Z,96867.78
2017-12-16T16:53:59.326Z,96876.19
2017-12-16T16:56:49.000Z,96885.19
2017-12-16T16:59:21.852Z,96880.55
2017-12-16T17:01:58.551Z,96886.67
2017-12-16T17:04:31.407Z,96878.08
2017-12-16T17:07:03.628Z,96883.34
2017-12-16T17:09:40.403Z,96887.52
2017-12-16T17:12:22.439Z,96888.41
2017-12-16T17:14:54.124Z,96900.00
2017-12-16T17:17:24.544Z,96899.30
2017-12-16T17:19:56.969Z,96904.42
2017-12-16T17:22:27.596Z,96908.08
2017-12-16T17:24:57.595Z,96921.94
2017-12-16T17:27:28.242Z,96926.11
2017-12-16T17:30:02.654Z,96922.16
2017-12-16T17:32:37.031Z,96929.87
2017-12-16T17:35:24.627Z,96937.03
2017-12-16T17:37:54.581Z,96936.72
2017-12-16T17:40:26.387Z,96941.83
2017-12-16T17:43:07.123Z,96947.16
2017-12-16T17:45:48.360Z,96949.46
2017-12-16T17:49:08.164Z,96958.06
2017-12-16T17:51:42.173Z,96959.28
2017-12-16T17:54:27.648Z,96961.02
2017-12-16T17:56:59.543Z,96962.53
2017-12-16T17:59:54.467Z,96963.98
2017-12-16T18:02:29.607Z,96964.45
2017-12-16T18:05:24.133Z,96976.47
2017-12-16T18:07:58.643Z,96984.29
2017-12-16T18:10:34.969Z,96981.99
2017-12-16T18:13:09.682Z,96989.55
2017-12-16T18:16:07.241Z,97000.02
2017-12-16T18:18:40.150Z,97007.88
2017-12-16T18:21:27.570Z,97012.44
2017-12-16T18:24:08.645Z,97015.88
2017-12-16T18:31:17.400Z,97030.85
2017-12-16T18:33:57.724Z,97026.92
2017-12-16T18:36:34.328Z,97035.15
2017-12-16T18:39:25.612Z,97040.80
2017-12-16T18:42:05.163Z,97043.75
2017-12-16T18:44:35.917Z,97045.59
2017-12-16T18:47:11.096Z,97041.34
2017-12-16T18:49:44.309Z,97032.48
2017-12-16T18:52:27.382Z,97043.06
2017-12-16T18:54:59.939Z,97042.80
2017-12-16T18:57:31.998Z,97048.09
2017-12-16T19:00:03.050Z,97044.07
2017-12-16T19:02:45.426Z,97048.80
2017-12-16T19:05:23.102Z,97050.87
2017-12-16T19:07:54.249Z,97052.77
2017-12-16T19:10:27.489Z,97051.20
2017-12-16T19:16:25.123Z,97056.31
2017-12-16T19:19:03.242Z,97052.03
2017-12-16T19:21:48.697Z,97055.47
2017-12-16T19:24:21.636Z,97056.11
2017-12-16T19:26:55.118Z,97049.89
2017-12-16T19:29:48.941Z,97054.76
2017-12-16T19:32:25.290Z,97050.02
2017-12-16T19:35:03.025Z,97054.98
2017-12-16T19:37:42.045Z,97062.58
2017-12-16T19:40:25.144Z,97058.89
2017-12-16T19:42:59.930Z,97073.31
2017-12-16T19:45:34.669Z,97075.92
2017-12-16T19:48:20.571Z,97079.52
2017-12-16T19:51:01.278Z,97086.01
2017-12-16T19:54:05.158Z,97086.86
2017-12-16T19:56:45.307Z,97088.44
2017-12-16T19:59:18.201Z,97087.95
2017-12-16T20:01:48.933Z,97089.73
2017-12-16T20:04:39.479Z,97091.59
2017-12-16T20:07:18.130Z,97097.14
2017-12-16T20:10:04.358Z,97105.39
2017-12-16T20:12:46.633Z,97115.01
2017-12-16T20:15:48.965Z,97116.47
2017-12-16T20:18:23.781Z,97117.77
2017-12-16T20:20:59.927Z,97116.73
2017-12-16T20:23:57.132Z,97117.63
2017-12-16T20:26:54.232Z,97118.31
2017-12-16T20:29:26.963Z,97114.20
2017-12-16T20:31:59.678Z,97118.87
2017-12-16T20:34:49.206Z,97119.20
2017-12-16T20:37:33.771Z,97123.07
2017-12-16T20:40:18.824Z,97124.66
2017-12-16T20:42:55.161Z,97133.47
2017-12-16T20:45:27.662Z,97138.80
2017-12-16T20:47:59.685Z,97137.43
2017-12-16T20:50:34.321Z,97145.33
2017-12-16T20:53:04.538Z,97144.38
2017-12-16T20:55:45.469Z,97150.98
2017-12-16T20:58:22.371Z,97154.14
2017-12-16T21:00:59.729Z,97153.09
2017-12-16T21:03:43.780Z,97151.78
2017-12-16T21:06:29.234Z,97152.91
2017-12-16T21:09:05.990Z,97152.62
2017-12-16T21:11:47.599Z,97157.49
2017-12-16T21:14:32.805Z,97159.84
2017-12-16T21:17:06.376Z,97167.36
2017-12-16T21:19:43.114Z,97172.57
2017-12-16T21:22:17.444Z,97180.59
2017-12-16T21:25:05.166Z,97180.91
2017-12-16T21:27:50.296Z,97189.16
2017-12-16T21:30:22.972Z,97195.49
2017-12-16T21:33:02.667Z,97200.12
2017-12-16T21:35:48.930Z,97210.17
2017-12-16T21:38:22.097Z,97206.33
2017-12-16T21:40:58.390Z,97211.23
2017-12-16T21:43:47.503Z,97212.16
2017-12-16T21:46:37.010Z,97216.88
2017-12-16T21:49:17.875Z,97227.30
2017-12-16T21:52:27.559Z,97228.09
2017-12-16T21:55:03.044Z,97240.09
2017-12-16T21:57:33.904Z,97243.99
2017-12-16T22:00:07.119Z,97259.34
2017-12-16T22:02:44.467Z,97266.84
2017-12-16T22:05:20.785Z,97272.68
2017-12-16T22:07:52.625Z,97281.33
2017-12-16T22:10:25.958Z,97275.17
2017-12-16T22:12:59.165Z,97277.28
2017-12-16T22:15:31.571Z,97281.19
2017-12-16T22:18:02.462Z,97271.08
2017-12-16T22:20:34.990Z,97272.42
2017-12-16T22:25:48.234Z,97268.52
2017-12-16T22:28:19.935Z,97266.09
2017-12-16T22:30:53.141Z,97257.03
2017-12-16T22:33:24.474Z,97256.02
2017-12-16T22:35:55.865Z,97256.87
2017-12-16T22:38:25.894Z,97260.31
2017-12-16T22:40:58.709Z,97264.98
2017-12-16T22:43:30.830Z,97265.91
2017-12-16T22:46:04.334Z,97263.20
2017-12-16T22:51:28.643Z,97276.28
2017-12-16T22:54:00.931Z,97278.02
2017-12-16T22:56:31.647Z,97276.16
2017-12-16T22:59:03.127Z,97282.27
2017-12-16T23:01:34.961Z,97283.67
2017-12-16T23:04:21.274Z,97286.36
2017-12-16T23:06:59.651Z,97289.06
2017-12-16T23:09:36.774Z,97306.69
2017-12-16T23:12:08.252Z,97311.33
2017-12-16T23:14:43.563Z,97314.28
2017-12-16T23:17:23.245Z,97310.89
2017-12-16T23:36:07.550Z,97306.40
2017-12-16T23:50:39.251Z,97326.59
2017-12-16T23:53:19.961Z,97327.70
2017-12-16T23:56:14.714Z,97334.29
2017-12-16T23:58:48.052Z,97332.14
